Time;durP1;ratioP1;P1;durP2;ratioP2;P2;SDS_P1;SDS_P2;PMS_P1;PMS_P2;Temp;Humidity;BMP_temperature;BMP_pressure;BME280_temperature;BME280_humidity;BME280_pressure;Samples;Min_cycle;Max_cycle;Signal;HPM_P1;HPM_P2
2023/09/06 00:02:09;;;;;;;11.88;5.63;;;;;;;26.97;50.59;101083.94;5052789;28;20064;-35
2023/09/06 00:04:37;;;;;;;11.50;5.63;;;;;;;26.99;50.53;101083.56;5053855;28;20049;-34
2023/09/06 00:07:06;;;;;;;14.43;6.03;;;;;;;26.93;51.20;101085.19;5053524;28;20049;-34
2023/09/06 00:09:33;;;;;;;12.35;5.70;;;;;;;26.89;51.41;101088.06;5043261;28;20049;-35
2023/09/06 00:12:00;;;;;;;13.57;5.75;;;;;;;26.91;51.21;101096.13;5055996;28;20060;-35
2023/09/06 00:14:29;;;;;;;12.10;5.30;;;;;;;26.87;51.41;101084.06;5050615;28;20052;-36
2023/09/06 00:16:56;;;;;;;13.40;6.30;;;;;;;26.88;51.44;101082.81;5053588;28;20063;-34
2023/09/06 00:19:24;;;;;;;10.30;5.07;;;;;;;26.83;52.12;101086.09;5060607;28;20045;-34
2023/09/06 00:21:51;;;;;;;11.43;5.55;;;;;;;26.74;52.10;101082.91;5049618;28;20057;-35
2023/09/06 00:24:19;;;;;;;11.65;5.68;;;;;;;26.69;52.55;101080.53;5053383;28;20063;-34
2023/09/06 00:26:46;;;;;;;9.85;5.35;;;;;;;26.66;52.56;101082.94;5053626;28;20055;-33
2023/09/06 00:29:14;;;;;;;12.13;5.60;;;;;;;26.64;52.25;101079.72;5051868;28;20056;-35
2023/09/06 00:31:41;;;;;;;11.70;5.22;;;;;;;26.63;52.38;101080.13;5051437;28;20036;-33
2023/09/06 00:34:08;;;;;;;10.93;5.32;;;;;;;26.60;52.49;101083.78;5050353;28;20045;-33
2023/09/06 00:36:36;;;;;;;9.25;4.93;;;;;;;26.59;52.92;101079.34;5051476;28;20052;-33
2023/09/06 00:39:05;;;;;;;13.13;5.05;;;;;;;26.59;52.43;101085.81;5051404;28;20057;-34
2023/09/06 00:41:33;;;;;;;11.15;5.80;;;;;;;26.60;53.16;101078.13;5051327;28;20053;-34
2023/09/06 00:44:00;;;;;;;12.48;5.38;;;;;;;26.61;52.63;101074.91;5052352;28;20049;-33
2023/09/06 00:46:28;;;;;;;11.60;5.55;;;;;;;26.62;52.86;101079.31;5033226;28;20049;-33
2023/09/06 00:48:56;;;;;;;10.23;5.15;;;;;;;26.62;52.86;101076.50;5049016;28;20065;-33
2023/09/06 00:51:25;;;;;;;13.90;5.50;;;;;;;26.62;52.43;101078.53;5065547;28;20048;-35
2023/09/06 00:53:52;;;;;;;8.07;5.13;;;;;;;26.59;53.10;101080.16;5058228;28;20052;-34
2023/09/06 00:56:20;;;;;;;12.80;6.00;;;;;;;26.58;53.12;101081.38;5051679;28;20056;-35
2023/09/06 00:58:49;;;;;;;10.30;5.78;;;;;;;26.58;53.17;101077.75;5031151;28;20057;-34
2023/09/06 01:01:17;;;;;;;10.13;5.25;;;;;;;26.57;53.54;101078.97;5065372;28;20062;-34
2023/09/06 01:03:44;;;;;;;11.00;5.72;;;;;;;26.56;53.09;101078.16;5034235;28;20045;-34
2023/09/06 01:06:22;;;;;;;12.13;5.20;;;;;;;26.63;52.71;101080.94;5065959;28;20063;-34
2023/09/06 01:08:55;;;;;;;11.95;5.80;;;;;;;26.65;53.19;101075.69;5065096;28;20519;-35
2023/09/06 01:11:25;;;;;;;12.15;5.78;;;;;;;26.71;52.88;101076.06;5046443;28;20045;-35
2023/09/06 01:13:59;;;;;;;12.55;5.68;;;;;;;26.70;52.64;101074.47;5052693;28;20045;-34
2023/09/06 01:16:39;;;;;;;11.57;5.50;;;;;;;26.72;52.63;101071.22;5051210;28;20053;-34
2023/09/06 01:19:07;;;;;;;10.90;5.38;;;;;;;26.71;53.01;101073.22;5065333;28;20086;-34
2023/09/06 01:21:37;;;;;;;10.93;5.40;;;;;;;26.71;53.24;101076.06;5022819;28;20064;-34
2023/09/06 01:24:05;;;;;;;8.80;5.10;;;;;;;26.66;53.14;101070.81;5032388;28;20049;-35
2023/09/06 01:26:34;;;;;;;14.00;5.53;;;;;;;26.70;53.43;101070.81;5041379;28;20049;-34
2023/09/06 01:29:01;;;;;;;9.63;5.15;;;;;;;26.71;53.08;101075.28;5049668;28;20053;-33
2023/09/06 01:31:29;;;;;;;10.75;5.28;;;;;;;26.73;53.01;101075.66;5034365;28;20061;-34
2023/09/06 01:33:56;;;;;;;11.70;5.45;;;;;;;26.71;53.04;101073.22;5052193;28;20063;-34
2023/09/06 01:36:24;;;;;;;9.05;5.15;;;;;;;26.71;53.53;101076.06;5061198;28;20053;-34
2023/09/06 01:38:51;;;;;;;12.70;5.55;;;;;;;26.67;53.26;101084.56;5065454;28;20045;-34
2023/09/06 01:41:19;;;;;;;11.25;5.18;;;;;;;26.66;53.71;101076.47;5029142;28;20048;-34
2023/09/06 01:43:46;;;;;;;12.30;5.05;;;;;;;26.63;53.23;101080.13;5033646;28;20084;-34
2023/09/06 01:46:14;;;;;;;8.32;4.90;;;;;;;26.60;53.47;101080.97;5055572;28;20072;-33
2023/09/06 01:48:42;;;;;;;9.73;4.80;;;;;;;26.54;54.04;101086.25;5032156;28;20056;-36
2023/09/06 01:51:09;;;;;;;8.50;4.53;;;;;;;26.51;53.76;101077.78;5044717;28;20057;-34
2023/09/06 01:53:36;;;;;;;9.82;4.90;;;;;;;26.49;54.25;101075.38;5051277;28;20045;-35
2023/09/06 01:56:07;;;;;;;13.90;5.18;;;;;;;26.46;54.47;101081.03;5050255;28;20049;-34
2023/09/06 01:58:34;;;;;;;12.07;5.00;;;;;;;26.43;54.13;101081.88;5067243;28;20052;-34
2023/09/06 02:01:03;;;;;;;8.50;4.55;;;;;;;26.44;54.17;101077.81;5049584;28;20049;-34
2023/09/06 02:03:34;;;;;;;11.53;4.63;;;;;;;26.41;53.83;101082.25;5040979;28;20060;-34
2023/09/06 02:06:03;;;;;;;11.43;5.32;;;;;;;26.41;53.96;101085.09;5045843;28;20067;-34
2023/09/06 02:08:31;;;;;;;10.65;4.85;;;;;;;26.40;54.48;101083.50;5050149;28;20071;-34
2023/09/06 02:10:58;;;;;;;9.43;4.55;;;;;;;26.40;54.67;101089.16;5051278;28;20055;-34
2023/09/06 02:13:25;;;;;;;9.05;5.10;;;;;;;26.39;54.29;101089.56;5050178;28;20040;-34
2023/09/06 02:15:52;;;;;;;9.35;4.30;;;;;;;26.38;54.00;101096.41;5050602;28;20053;-34
2023/09/06 02:18:20;;;;;;;9.15;4.55;;;;;;;26.38;54.37;101088.75;5059586;28;20061;-34
2023/09/06 02:20:49;;;;;;;10.57;4.70;;;;;;;26.34;54.29;101090.78;5072800;28;20064;-35
2023/09/06 02:23:17;;;;;;;10.37;5.07;;;;;;;26.34;54.27;101087.94;5054724;28;20451;-34
2023/09/06 02:25:45;;;;;;;13.25;5.03;;;;;;;26.34;54.13;101078.69;5034857;28;20064;-34
2023/09/06 02:28:14;;;;;;;8.98;4.65;;;;;;;26.34;54.36;101079.47;5053201;28;20064;-34
2023/09/06 02:30:41;;;;;;;11.70;4.60;;;;;;;26.39;53.74;101083.91;5053407;28;20064;-34
2023/09/06 02:33:14;;;;;;;11.20;4.32;;;;;;;26.48;53.85;101081.44;5049737;28;20041;-34
2023/09/06 02:35:43;;;;;;;10.85;4.25;;;;;;;26.52;53.83;101085.84;5043960;28;20743;-35
2023/09/06 02:38:11;;;;;;;8.35;4.30;;;;;;;26.50;53.25;101076.97;5024894;28;20404;-34
2023/09/06 02:40:42;;;;;;;9.60;4.20;;;;;;;26.49;53.71;101086.69;5055125;28;20437;-34
2023/09/06 02:43:10;;;;;;;8.07;4.32;;;;;;;26.50;53.24;101076.19;5054058;28;20056;-35
2023/09/06 02:45:38;;;;;;;8.32;4.13;;;;;;;26.46;53.46;101079.03;5066336;28;20052;-34
2023/09/06 02:48:07;;;;;;;9.20;3.90;;;;;;;26.42;53.74;101083.91;5062471;28;20064;-34
2023/09/06 02:50:35;;;;;;;7.45;4.22;;;;;;;26.41;53.57;101081.47;5071168;28;20067;-36
2023/09/06 02:53:03;;;;;;;8.98;4.47;;;;;;;26.38;53.32;101073.81;5054982;28;20423;-34
2023/09/06 02:55:35;;;;;;;9.50;4.18;;;;;;;26.43;53.43;101085.50;5054014;28;20053;-35
2023/09/06 02:58:04;;;;;;;8.77;4.63;;;;;;;26.45;53.21;101079.41;5042451;28;20045;-34
2023/09/06 03:00:35;;;;;;;9.27;4.75;;;;;;;26.41;53.52;101075.84;5048189;28;20068;-34
2023/09/06 03:03:06;;;;;;;8.70;5.00;;;;;;;26.41;53.97;101082.25;5048745;28;20044;-34
2023/09/06 03:05:42;;;;;;;10.65;4.50;;;;;;;26.42;53.58;101083.06;5053668;28;20060;-34
2023/09/06 03:08:15;;;;;;;12.35;5.00;;;;;;;26.41;53.49;101078.66;5053171;28;20048;-34
2023/09/06 03:10:45;;;;;;;13.50;4.60;;;;;;;26.40;53.85;101085.50;5054649;28;20546;-34
2023/09/06 03:13:16;;;;;;;7.93;4.47;;;;;;;26.35;53.54;101080.28;5043701;28;20045;-34
2023/09/06 03:15:44;;;;;;;10.23;4.78;;;;;;;26.37;54.23;101087.16;5032763;28;20049;-34
2023/09/06 03:18:13;;;;;;;10.07;4.63;;;;;;;26.36;53.79;101090.41;5044156;28;20051;-34
2023/09/06 03:20:43;;;;;;;8.88;4.10;;;;;;;26.33;54.24;101082.72;5059063;28;20053;-33
2023/09/06 03:23:17;;;;;;;8.63;4.18;;;;;;;26.29;54.42;101079.91;5048858;28;20045;-35
2023/09/06 03:25:57;;;;;;;9.18;4.18;;;;;;;26.27;54.79;101073.91;5048633;28;20053;-34
2023/09/06 03:28:31;;;;;;;9.52;4.80;;;;;;;26.25;54.24;101073.50;5033260;28;20101;-35
2023/09/06 03:31:00;;;;;;;11.65;4.72;;;;;;;26.25;54.16;101076.31;5050021;28;20420;-35
2023/09/06 03:33:29;;;;;;;10.05;4.38;;;;;;;26.24;54.44;101074.69;5049351;28;20045;-34
2023/09/06 03:35:57;;;;;;;11.13;5.03;;;;;;;26.22;54.35;101077.13;5054495;28;20675;-34
2023/09/06 03:38:25;;;;;;;14.52;4.68;;;;;;;26.23;54.19;101075.13;5050959;28;20075;-34
2023/09/06 03:40:55;;;;;;;9.85;4.55;;;;;;;26.20;54.24;101076.75;5051963;28;20060;-34
2023/09/06 03:43:30;;;;;;;9.50;4.07;;;;;;;26.20;54.45;101073.13;5052610;28;20061;-34
2023/09/06 03:46:04;;;;;;;12.35;5.18;;;;;;;26.20;54.10;101073.13;5064538;28;20542;-33
2023/09/06 03:48:32;;;;;;;10.85;4.75;;;;;;;26.19;54.87;101083.59;5042768;28;20080;-34
2023/09/06 03:51:00;;;;;;;7.85;4.70;;;;;;;26.16;54.71;101077.97;5054861;28;20060;-34
2023/09/06 03:53:27;;;;;;;12.55;4.72;;;;;;;26.21;54.73;101081.19;5053958;28;20056;-34
2023/09/06 03:55:57;;;;;;;12.23;4.88;;;;;;;26.28;54.24;101086.78;5053906;28;20531;-34
2023/09/06 03:58:34;;;;;;;8.52;4.40;;;;;;;26.28;54.35;101089.63;5051572;28;20385;-34
2023/09/06 04:01:04;;;;;;;;;;;;;;;26.28;53.97;101092.44;5048895;28;20060;-34
2023/09/06 04:03:34;;;;;;;8.93;4.55;;;;;;;26.25;53.94;101089.63;5059157;28;19927;-34
2023/09/06 04:06:03;;;;;;;9.07;4.70;;;;;;;26.23;54.53;101083.59;5066619;28;20653;-34
2023/09/06 04:08:33;;;;;;;11.70;4.57;;;;;;;26.21;54.22;101092.47;5072725;28;20586;-34
2023/09/06 04:11:02;;;;;;;9.68;4.53;;;;;;;26.21;54.18;101089.66;5072334;28;20060;-34
2023/09/06 04:13:29;;;;;;;9.10;4.88;;;;;;;26.20;54.31;101087.25;5057862;28;20041;-35
2023/09/06 04:15:58;;;;;;;9.55;4.35;;;;;;;26.23;54.19;101092.06;5051735;28;20053;-34
2023/09/06 04:18:28;;;;;;;;;;;;;;;26.21;54.32;101094.47;5060319;28;20055;-34
2023/09/06 04:20:59;;;;;;;8.95;4.78;;;;;;;26.18;54.71;101096.13;5051144;28;19932;-34
2023/09/06 04:23:27;;;;;;;10.98;5.30;;;;;;;26.18;54.72;101096.13;5032072;28;20053;-34
2023/09/06 04:25:57;;;;;;;9.07;4.78;;;;;;;26.20;54.51;101095.72;5033082;28;20060;-35
2023/09/06 04:28:28;;;;;;;10.32;4.72;;;;;;;26.22;54.20;101093.28;5049011;28;20104;-35
2023/09/06 04:30:58;;;;;;;;;;;;;;;26.24;54.16;101090.84;5030265;28;20515;-34
2023/09/06 04:33:30;;;;;;;13.02;4.75;;;;;;;26.25;54.14;101089.63;5052937;28;19931;-35
2023/09/06 04:36:04;;;;;;;9.10;4.75;;;;;;;26.23;54.21;101092.06;5055277;28;20139;-34
2023/09/06 04:38:32;;;;;;;9.73;5.13;;;;;;;26.24;54.54;101091.66;5035614;28;20515;-35
2023/09/06 04:41:02;;;;;;;8.15;4.78;;;;;;;26.24;54.68;101097.28;5047581;28;20049;-35
2023/09/06 04:43:37;;;;;;;11.30;5.45;;;;;;;26.20;54.85;101087.25;5031826;28;20519;-34
2023/09/06 04:46:04;;;;;;;8.30;5.18;;;;;;;26.19;54.87;101096.91;5050318;28;20052;-34
2023/09/06 04:48:36;;;;;;;9.27;4.75;;;;;;;26.16;54.53;101092.91;5054081;28;20063;-34
2023/09/06 04:51:06;;;;;;;9.48;5.00;;;;;;;26.17;55.07;101099.38;5060830;28;20055;-34
2023/09/06 04:53:33;;;;;;;8.82;4.60;;;;;;;26.15;55.01;101093.31;5051640;28;20049;-34
2023/09/06 04:56:03;;;;;;;10.00;4.80;;;;;;;26.16;54.61;101094.91;5035967;28;20064;-34
2023/09/06 04:58:39;;;;;;;10.40;5.22;;;;;;;26.17;54.46;101097.31;5039210;28;20057;-34
2023/09/06 05:01:06;;;;;;;10.85;5.30;;;;;;;26.14;54.70;101095.31;5039242;28;20057;-34
2023/09/06 05:03:35;;;;;;;9.05;4.55;;;;;;;26.14;54.91;101098.16;5048572;28;20052;-34
2023/09/06 05:06:04;;;;;;;8.40;4.78;;;;;;;26.12;54.92;101097.75;5058824;28;20052;-34
2023/09/06 05:08:32;;;;;;;9.63;5.05;;;;;;;26.11;55.46;101098.16;5061175;28;20060;-34
2023/09/06 05:11:06;;;;;;;11.48;5.40;;;;;;;26.09;55.65;101100.59;5031583;28;20064;-34
2023/09/06 05:13:38;;;;;;;9.82;4.80;;;;;;;26.09;55.10;101101.41;5048316;28;20041;-34
2023/09/06 05:16:08;;;;;;;11.65;6.30;;;;;;;26.13;55.11;101098.56;5053320;28;20057;-34
2023/09/06 05:18:38;;;;;;;14.40;5.70;;;;;;;26.12;55.35;101106.22;5045215;28;20059;-35
2023/09/06 05:21:05;;;;;;;10.07;5.22;;;;;;;26.11;55.27;101103.81;5049911;28;20067;-35
2023/09/06 05:23:36;;;;;;;15.43;5.10;;;;;;;26.15;54.89;101093.31;5049457;28;20052;-34
2023/09/06 05:26:03;;;;;;;9.88;5.65;;;;;;;26.17;55.32;101091.69;5044148;28;20452;-34
2023/09/06 05:28:42;;;;;;;9.57;5.00;;;;;;;26.25;55.39;101098.91;5056340;28;20045;-35
2023/09/06 05:31:10;;;;;;;13.13;4.97;;;;;;;26.30;55.67;101100.50;5049926;28;20052;-34
2023/09/06 05:33:40;;;;;;;8.68;4.57;;;;;;;26.31;55.33;101102.91;5050807;28;20045;-35
2023/09/06 05:36:08;;;;;;;22.00;6.25;;;;;;;26.26;55.70;101097.69;5035380;28;20049;-34
2023/09/06 05:38:36;;;;;;;16.08;5.70;;;;;;;26.26;55.31;101099.69;5050561;28;20071;-34
2023/09/06 05:41:05;;;;;;;15.68;5.75;;;;;;;26.25;55.45;101100.94;5038819;28;20561;-33
2023/09/06 05:43:38;;;;;;;13.35;5.05;;;;;;;26.29;55.75;101110.97;5034652;28;20060;-34
2023/09/06 05:46:05;;;;;;;15.00;5.90;;;;;;;26.32;55.81;101106.53;5038760;28;20044;-33
2023/09/06 05:48:44;;;;;;;19.55;6.82;;;;;;;25.86;57.19;101108.69;5043762;28;20060;-36
2023/09/06 05:51:12;;;;;;;18.83;6.60;;;;;;;25.73;57.41;101111.16;5026914;28;20064;-34
2023/09/06 05:53:40;;;;;;;16.38;6.30;;;;;;;25.66;57.27;101113.19;5039144;28;20041;-34
2023/09/06 05:56:07;;;;;;;20.67;6.57;;;;;;;24.87;59.68;101122.03;5056581;28;20044;-33
2023/09/06 05:58:38;;;;;;;18.35;5.95;;;;;;;24.73;60.87;101131.28;5038720;28;20530;-34
2023/09/06 06:01:08;;;;;;;17.23;6.53;;;;;;;24.62;61.02;101126.81;5035202;28;20164;-33
2023/09/06 06:03:37;;;;;;;11.55;5.90;;;;;;;24.35;61.92;101124.31;5034790;28;20507;-34
2023/09/06 06:06:10;;;;;;;14.25;7.13;;;;;;;24.30;62.04;101123.88;5045070;28;20056;-34
2023/09/06 06:08:38;;;;;;;14.55;6.60;;;;;;;24.35;61.95;101118.69;5043980;28;20049;-34
2023/09/06 06:11:06;;;;;;;18.92;6.55;;;;;;;24.26;62.05;101123.88;5050770;28;20060;-34
2023/09/06 06:13:34;;;;;;;16.25;6.65;;;;;;;24.59;62.00;101130.41;5024942;28;20041;-34
2023/09/06 06:16:01;;;;;;;18.23;6.57;;;;;;;24.62;61.11;101127.59;5055104;28;20041;-35
2023/09/06 06:18:29;;;;;;;16.30;6.97;;;;;;;24.51;61.74;101129.59;5042141;28;20037;-34
2023/09/06 06:20:58;;;;;;;14.85;6.80;;;;;;;24.45;62.06;101136.78;5045794;28;20053;-34
2023/09/06 06:23:27;;;;;;;19.85;8.45;;;;;;;24.87;61.41;101139.75;5043515;28;20056;-34
2023/09/06 06:25:54;;;;;;;18.10;9.48;;;;;;;25.35;59.61;101134.56;5040690;28;20068;-34
2023/09/06 06:28:21;;;;;;;16.00;6.78;;;;;;;25.22;59.53;101134.16;5043878;28;20044;-34
2023/09/06 06:30:49;;;;;;;17.17;7.10;;;;;;;24.95;60.33;101132.13;5043794;28;20056;-34
2023/09/06 06:33:16;;;;;;;20.08;7.80;;;;;;;24.86;60.51;101140.94;5043052;28;20045;-35
2023/09/06 06:35:44;;;;;;;28.23;7.75;;;;;;;24.75;61.28;101139.31;5045802;28;20049;-33
2023/09/06 06:38:11;;;;;;;22.40;8.00;;;;;;;24.61;61.94;101142.06;5041610;28;20049;-34
2023/09/06 06:40:39;;;;;;;16.85;7.35;;;;;;;24.64;61.83;101142.09;5044319;28;20060;-35
2023/09/06 06:43:06;;;;;;;16.60;7.53;;;;;;;24.56;61.88;101156.56;5044030;28;20057;-34
2023/09/06 06:45:34;;;;;;;14.52;6.80;;;;;;;24.64;61.94;101149.72;5041975;28;20320;-33
2023/09/06 06:48:01;;;;;;;20.90;7.75;;;;;;;24.33;63.24;101149.22;5041558;28;20060;-34
2023/09/06 06:50:29;;;;;;;15.80;6.93;;;;;;;24.11;63.93;101150.31;5043256;28;20053;-34
2023/09/06 06:52:58;;;;;;;19.98;8.20;;;;;;;24.07;64.53;101155.16;5027783;28;20048;-34
2023/09/06 06:55:25;;;;;;;18.92;7.53;;;;;;;24.06;64.47;101145.06;5042783;28;20045;-33
2023/09/06 06:57:53;;;;;;;27.58;7.88;;;;;;;23.99;64.91;101147.03;5044868;28;20056;-34
2023/09/06 07:00:21;;;;;;;21.98;8.18;;;;;;;24.01;64.52;101151.06;5043168;28;20060;-33
2023/09/06 07:02:49;;;;;;;17.15;7.65;;;;;;;24.06;64.91;101159.13;5050344;28;20060;-34
2023/09/06 07:05:16;;;;;;;19.67;8.25;;;;;;;24.19;64.32;101148.34;5045965;28;20041;-33
2023/09/06 07:07:43;;;;;;;19.73;8.30;;;;;;;24.21;64.15;101154.41;5042530;28;20461;-35
2023/09/06 07:10:11;;;;;;;21.45;8.07;;;;;;;24.04;64.81;101157.94;5053543;28;20056;-33
2023/09/06 07:12:38;;;;;;;15.48;7.55;;;;;;;24.05;64.90;101160.34;5047844;28;20049;-35
2023/09/06 07:15:06;;;;;;;18.08;8.18;;;;;;;24.06;64.82;101158.34;5045844;28;20060;-33
2023/09/06 07:17:34;;;;;;;27.05;8.55;;;;;;;24.09;64.62;101164.00;5046680;28;20053;-35
2023/09/06 07:20:02;;;;;;;26.90;7.82;;;;;;;24.12;64.88;101162.41;5043140;28;20060;-34
2023/09/06 07:22:29;;;;;;;18.88;7.60;;;;;;;24.23;64.29;101166.09;5046360;28;20037;-34
2023/09/06 07:24:57;;;;;;;16.65;7.25;;;;;;;24.17;64.33;101171.28;5055926;28;20045;-34
2023/09/06 07:27:25;;;;;;;19.40;7.80;;;;;;;24.23;64.47;101166.88;5048631;28;20049;-34
2023/09/06 07:29:52;;;;;;;19.48;7.78;;;;;;;24.32;64.20;101158.88;5047372;28;20072;-34
2023/09/06 07:32:20;;;;;;;25.45;8.00;;;;;;;24.35;64.04;101165.72;5041657;28;20578;-34
2023/09/06 07:34:47;;;;;;;20.70;7.60;;;;;;;24.58;62.99;101171.88;5040975;28;20041;-33
2023/09/06 07:37:14;;;;;;;18.33;8.02;;;;;;;25.24;61.46;101167.59;5046604;28;20053;-35
2023/09/06 07:39:42;;;;;;;17.75;7.88;;;;;;;25.33;60.35;101171.59;5045616;28;20064;-33
2023/09/06 07:42:09;;;;;;;17.75;6.65;;;;;;;26.03;58.59;101176.44;5041645;28;20500;-38
2023/09/06 07:44:36;;;;;;;16.30;7.00;;;;;;;26.08;57.68;101173.19;5050169;28;20048;-34
2023/09/06 07:47:04;;;;;;;20.63;7.32;;;;;;;25.74;58.63;101165.56;5042972;28;20044;-35
2023/09/06 07:49:31;;;;;;;17.05;7.00;;;;;;;25.53;60.15;101170.03;5044513;28;20052;-35
2023/09/06 07:52:04;;;;;;;14.30;7.30;;;;;;;25.66;59.88;101169.63;5047868;28;20049;-32
2023/09/06 07:54:32;;;;;;;27.45;6.68;;;;;;;25.39;59.99;101169.22;5046749;28;20044;-35
2023/09/06 07:56:59;;;;;;;15.77;6.55;;;;;;;25.57;60.63;101175.69;5047794;28;20053;-33
2023/09/06 07:59:27;;;;;;;14.43;7.22;;;;;;;25.62;59.30;101175.28;5050984;28;20060;-35
2023/09/06 08:01:54;;;;;;;15.30;7.05;;;;;;;25.60;59.89;101177.69;5054624;28;20057;-33
2023/09/06 08:04:22;;;;;;;15.48;7.65;;;;;;;25.72;58.78;101179.31;5044474;28;20045;-33
2023/09/06 08:06:49;;;;;;;20.38;7.32;;;;;;;25.57;59.23;101184.16;5044479;28;20038;-33
2023/09/06 08:09:17;;;;;;;20.63;7.07;;;;;;;25.75;59.40;101184.91;5055288;28;20064;-33
2023/09/06 08:11:44;;;;;;;14.82;6.57;;;;;;;25.74;59.17;101182.50;5047491;28;20506;-33
2023/09/06 08:14:12;;;;;;;16.45;7.05;;;;;;;25.42;59.58;101190.97;5048907;28;20053;-34
2023/09/06 08:16:39;;;;;;;15.18;6.97;;;;;;;25.19;60.17;101190.56;5049156;28;20041;-33
2023/09/06 08:19:07;;;;;;;20.42;6.97;;;;;;;25.18;60.18;101195.38;5045481;28;20529;-35
2023/09/06 08:21:35;;;;;;;13.73;5.07;;;;;;;25.59;58.11;101187.38;5043321;28;20041;-34
2023/09/06 08:24:03;;;;;;;15.27;4.70;;;;;;;25.72;57.00;101184.97;5048514;28;20063;-35
2023/09/06 08:26:31;;;;;;;12.13;4.72;;;;;;;25.90;56.59;101194.19;5041224;28;20551;-33
2023/09/06 08:28:58;;;;;;;16.55;4.60;;;;;;;26.02;55.50;101188.91;5046579;28;20569;-34
2023/09/06 08:31:26;;;;;;;11.27;4.25;;;;;;;26.00;55.92;101184.88;5044611;28;20052;-33
2023/09/06 08:33:53;;;;;;;11.57;4.03;;;;;;;25.92;55.34;101186.13;5043281;28;20049;-33
2023/09/06 08:36:21;;;;;;;17.90;4.10;;;;;;;26.12;54.78;101179.63;5046414;28;20045;-33
2023/09/06 08:38:48;;;;;;;12.52;4.03;;;;;;;26.17;54.94;101192.56;5037548;28;20041;-33
2023/09/06 08:41:16;;;;;;;13.30;3.97;;;;;;;26.02;55.26;101194.56;5041200;28;20049;-34
2023/09/06 08:43:43;;;;;;;11.93;4.40;;;;;;;26.20;55.64;101186.09;5053749;28;20061;-34
2023/09/06 08:46:19;;;;;;;10.75;4.32;;;;;;;26.10;55.10;101193.34;5043627;28;20037;-34
2023/09/06 08:48:47;;;;;;;34.45;7.10;;;;;;;26.13;55.25;101194.56;5044854;28;20461;-33
2023/09/06 08:51:19;;;;;;;20.33;5.40;;;;;;;26.24;54.90;101187.66;5031076;28;20084;-34
2023/09/06 08:53:48;;;;;;;18.08;5.18;;;;;;;26.40;54.63;101192.88;5033657;28;20080;-34
2023/09/06 08:56:16;;;;;;;33.58;5.55;;;;;;;26.50;54.71;101197.69;5047317;28;20037;-34
2023/09/06 08:58:43;;;;;;;15.27;5.05;;;;;;;26.53;54.13;101191.22;5041910;28;20045;-34
2023/09/06 09:01:11;;;;;;;14.93;4.75;;;;;;;26.62;53.84;101195.19;5041884;28;20045;-34
2023/09/06 09:03:38;;;;;;;21.05;5.45;;;;;;;26.56;54.47;101196.03;5046795;28;20048;-34
2023/09/06 09:06:09;;;;;;;16.30;5.07;;;;;;;26.66;53.56;101186.69;5038242;28;20034;-35
2023/09/06 09:08:37;;;;;;;27.55;5.53;;;;;;;26.56;53.99;101199.66;5045814;28;20061;-34
2023/09/06 09:11:19;;;;;;;25.27;5.72;;;;;;;26.70;54.31;101190.34;5044855;28;20045;-34
2023/09/06 09:13:47;;;;;;;20.65;5.68;;;;;;;26.67;53.65;101186.31;5029942;28;20493;-35
2023/09/06 09:16:16;;;;;;;20.70;5.82;;;;;;;26.70;53.69;101190.34;5043261;28;20045;-34
2023/09/06 09:18:44;;;;;;;23.40;6.32;;;;;;;26.76;53.82;101190.72;5036843;28;20523;-33
2023/09/06 09:21:12;;;;;;;27.88;6.22;;;;;;;26.90;53.42;101182.16;5042505;28;20044;-33
2023/09/06 09:23:55;;;;;;;22.48;6.45;;;;;;;26.95;53.27;101178.91;5026209;28;20495;-34
2023/09/06 09:26:22;;;;;;;17.90;6.45;;;;;;;26.46;55.44;101189.22;5046418;28;20048;-35
2023/09/06 09:28:49;;;;;;;14.57;6.43;;;;;;;26.67;55.87;101191.19;5038155;28;20053;-33
2023/09/06 09:31:18;;;;;;;22.88;6.78;;;;;;;26.84;54.87;101180.97;5046382;28;20052;-39
2023/09/06 09:33:50;;;;;;;55.83;8.65;;;;;;;27.27;53.08;101191.59;5046587;28;20049;-34
2023/09/06 09:36:18;;;;;;;34.15;7.28;;;;;;;27.26;52.80;101181.50;5045697;28;20071;-34
2023/09/06 09:38:50;;;;;;;19.33;6.40;;;;;;;27.37;51.83;101182.25;5047692;28;20045;-34
2023/09/06 09:41:17;;;;;;;13.85;5.20;;;;;;;27.45;51.27;101177.34;5045532;28;20049;-34
2023/09/06 09:43:45;;;;;;;12.98;5.68;;;;;;;27.40;51.89;101191.94;5044600;28;20067;-33
2023/09/06 09:46:25;;;;;;;23.17;6.45;;;;;;;27.54;51.78;101186.97;5045929;28;20041;-34
2023/09/06 09:48:59;;;;;;;15.13;6.32;;;;;;;27.48;51.53;101182.97;5047324;28;20357;-34
2023/09/06 09:51:27;;;;;;;19.50;5.55;;;;;;;27.57;51.38;101180.47;5055990;28;20065;-34
2023/09/06 09:53:55;;;;;;;18.38;5.45;;;;;;;27.85;50.16;101173.72;5044872;28;20504;-34
2023/09/06 09:56:22;;;;;;;18.08;5.65;;;;;;;27.97;50.19;101180.91;5048293;28;20040;-35
2023/09/06 09:58:51;;;;;;;15.60;5.68;;;;;;;28.00;50.20;101178.03;5043843;28;20543;-33
2023/09/06 10:01:20;;;;;;;22.13;5.88;;;;;;;28.21;49.52;101174.19;5042148;28;20069;-36
2023/09/06 10:03:49;;;;;;;13.57;5.28;;;;;;;28.15;48.98;101173.84;5039385;28;20511;-35
2023/09/06 10:06:16;;;;;;;19.93;4.80;;;;;;;28.31;48.12;101171.25;5038765;28;20101;-35
2023/09/06 10:08:45;;;;;;;20.98;5.10;;;;;;;28.09;48.59;101172.69;5026790;28;20045;-35
2023/09/06 10:11:15;;;;;;;18.02;5.10;;;;;;;28.15;48.43;101161.72;5024639;28;20049;-35
2023/09/06 10:13:43;;;;;;;20.45;5.32;;;;;;;28.01;49.20;101167.53;5045983;28;20048;-34
2023/09/06 10:16:10;;;;;;;15.85;5.05;;;;;;;27.94;49.27;101171.25;5042537;28;20060;-34
2023/09/06 10:18:38;;;;;;;16.42;4.75;;;;;;;28.20;48.44;101170.56;5035780;28;20060;-35
2023/09/06 10:21:06;;;;;;;16.27;5.07;;;;;;;27.86;49.61;101163.22;5043625;28;20053;-36
2023/09/06 10:23:44;;;;;;;13.52;5.35;;;;;;;27.90;49.88;101164.78;5044528;28;20044;-35
2023/09/06 10:26:11;;;;;;;18.55;4.75;;;;;;;28.12;49.39;101163.38;5042679;28;20063;-34
2023/09/06 10:28:38;;;;;;;19.30;6.50;;;;;;;28.16;51.56;101155.63;5044813;28;20053;-35
2023/09/06 10:31:09;;;;;;;13.48;4.95;;;;;;;28.21;48.91;101157.97;5033461;28;20053;-34
2023/09/06 10:33:36;;;;;;;18.10;5.50;;;;;;;28.32;50.94;101161.50;5045345;28;20053;-34
2023/09/06 10:36:08;;;;;;;18.77;5.57;;;;;;;28.26;51.55;101156.72;5041618;28;20049;-36
2023/09/06 10:39:04;;;;;;;17.15;6.32;;;;;;;28.17;51.19;101150.75;5040662;28;20052;-35
2023/09/06 10:41:31;;;;;;;17.27;4.90;;;;;;;28.49;51.60;101142.66;5043408;28;20061;-35
2023/09/06 10:44:00;;;;;;;13.18;4.30;;;;;;;28.70;47.33;101148.88;5050130;28;20057;-35
2023/09/06 10:46:33;;;;;;;11.98;4.78;;;;;;;28.74;46.77;101143.97;5045200;28;20052;-34
2023/09/06 10:49:13;;;;;;;13.13;4.38;;;;;;;28.79;46.90;101142.66;5038788;28;20045;-35
2023/09/06 10:52:04;;;;;;;11.43;3.97;;;;;;;28.64;47.10;101141.28;5051970;28;20354;-35
2023/09/06 10:54:38;;;;;;;15.18;4.85;;;;;;;28.74;46.98;101135.44;5045562;28;20427;-35
2023/09/06 10:57:07;;;;;;;10.13;4.60;;;;;;;29.07;46.75;101138.59;5042115;28;20060;-36
2023/09/06 10:59:39;;;;;;;12.07;4.18;;;;;;;28.91;45.99;101144.91;5045365;28;20053;-35
2023/09/06 11:02:08;;;;;;;10.60;4.03;;;;;;;29.02;45.40;101142.72;5043927;28;20045;-35
2023/09/06 11:04:36;;;;;;;12.17;4.30;;;;;;;28.83;46.56;101142.63;5042635;28;20515;-34
2023/09/06 11:07:09;;;;;;;10.98;4.50;;;;;;;29.02;45.00;101139.09;5048910;28;20041;-33
2023/09/06 11:09:43;;;;;;;13.57;4.97;;;;;;;29.05;45.71;101136.19;5045916;28;20072;-34
2023/09/06 11:12:12;;;;;;;12.13;4.68;;;;;;;29.25;44.65;101136.31;5047221;28;20056;-34
2023/09/06 11:14:40;;;;;;;16.90;7.68;;;;;;;29.39;44.23;101133.25;5049790;28;20420;-35
2023/09/06 11:17:07;;;;;;;11.70;4.60;;;;;;;29.32;45.02;101128.50;5049762;28;20049;-34
2023/09/06 11:19:36;;;;;;;13.75;5.10;;;;;;;29.02;45.66;101122.88;5054662;28;20045;-34
2023/09/06 11:22:07;;;;;;;16.27;5.13;;;;;;;29.06;45.05;101122.81;5049425;28;20067;-34
2023/09/06 11:24:36;;;;;;;13.43;4.80;;;;;;;29.20;45.03;101129.09;5044877;28;20055;-33
2023/09/06 11:27:29;;;;;;;10.00;4.82;;;;;;;29.40;44.43;101109.28;5044739;28;20049;-34
2023/09/06 11:29:58;;;;;;;18.88;6.00;;;;;;;29.54;44.35;101112.69;5048715;28;20408;-34